createdAt,value
2018-08-22T00:00:33.175Z,1008.99
2018-08-22T00:01:13.537Z,1009.01
2018-08-22T00:01:53.876Z,1009.05
2018-08-22T00:02:34.335Z,1009.05
2018-08-22T00:03:14.716Z,1009.01
2018-08-22T00:03:55.195Z,1008.98
2018-08-22T00:04:35.526Z,1009.02
2018-08-22T00:05:15.967Z,1009.01
2018-08-22T00:05:56.333Z,1008.98
2018-08-22T00:06:36.689Z,1008.98
2018-08-22T00:07:17.114Z,1008.98
2018-08-22T00:07:57.474Z,1008.98
2018-08-22T00:08:37.880Z,1009.01
2018-08-22T00:09:18.249Z,1009
2018-08-22T00:09:58.656Z,1008.97
2018-08-22T00:10:39.045Z,1009.01
2018-08-22T00:11:19.439Z,1008.99
2018-08-22T00:11:59.853Z,1008.98
2018-08-22T00:12:40.262Z,1008.97
2018-08-22T00:13:20.708Z,1009.01
2018-08-22T00:14:01.079Z,1009
2018-08-22T00:14:41.431Z,1009.01
2018-08-22T00:15:21.901Z,1008.97
2018-08-22T00:16:02.262Z,1008.98
2018-08-22T00:16:42.702Z,1008.97
2018-08-22T00:17:23.099Z,1008.97
2018-08-22T00:18:03.484Z,1008.93
2018-08-22T00:18:43.867Z,1008.95
2018-08-22T00:19:24.285Z,1008.98
2018-08-22T00:20:04.638Z,1008.94
2018-08-22T00:20:45.068Z,1008.99
2018-08-22T00:21:25.493Z,1008.96
2018-08-22T00:22:05.836Z,1008.97
2018-08-22T00:22:46.241Z,1008.95
2018-08-22T00:23:26.637Z,1008.95
2018-08-22T00:24:06.993Z,1008.91
2018-08-22T00:24:47.411Z,1008.92
2018-08-22T00:25:27.943Z,1008.91
2018-08-22T00:26:08.240Z,1008.93
2018-08-22T00:26:48.626Z,1008.92
2018-08-22T00:27:29.009Z,1008.93
2018-08-22T00:28:09.390Z,1008.93
2018-08-22T00:28:49.824Z,1008.88
2018-08-22T00:29:30.234Z,1008.91
2018-08-22T00:30:10.592Z,1008.88
2018-08-22T00:30:51.036Z,1008.88
2018-08-22T00:31:31.424Z,1008.89
2018-08-22T00:32:11.851Z,1008.91
2018-08-22T00:32:52.242Z,1008.88
2018-08-22T00:33:32.630Z,1008.91
2018-08-22T00:34:13.021Z,1008.85
2018-08-22T00:34:53.418Z,1008.85
2018-08-22T00:35:33.837Z,1008.89
2018-08-22T00:36:14.223Z,1008.84
2018-08-22T00:36:54.589Z,1008.87
2018-08-22T00:37:34.994Z,1008.84
2018-08-22T00:38:15.413Z,1008.86
2018-08-22T00:38:55.773Z,1008.86
2018-08-22T00:39:36.209Z,1008.85
2018-08-22T00:40:16.616Z,1008.86
2018-08-22T00:40:56.998Z,1008.82
2018-08-22T00:41:37.437Z,1008.83
2018-08-22T00:42:17.808Z,1008.81
2018-08-22T00:42:58.237Z,1008.85
2018-08-22T00:43:38.654Z,1008.82
2018-08-22T00:44:19.055Z,1008.8
2018-08-22T00:44:59.389Z,1008.79
2018-08-22T00:45:39.843Z,1008.79
2018-08-22T00:46:20.220Z,1008.8
2018-08-22T00:47:00.650Z,1008.78
2018-08-22T00:47:41.121Z,1008.8
2018-08-22T00:48:21.477Z,1008.82
2018-08-22T00:49:01.868Z,1008.8
2018-08-22T00:49:42.248Z,1008.77
2018-08-22T00:50:22.724Z,1008.79
2018-08-22T00:51:03.080Z,1008.76
2018-08-22T00:51:43.472Z,1008.75
2018-08-22T00:52:23.864Z,1008.75
2018-08-22T00:53:04.350Z,1008.74
2018-08-22T00:53:44.728Z,1008.71
2018-08-22T00:54:25.091Z,1008.73
2018-08-22T00:55:05.546Z,1008.7
2018-08-22T00:55:45.909Z,1008.72
2018-08-22T00:56:26.286Z,1008.69
2018-08-22T00:57:06.717Z,1008.73
2018-08-22T00:57:47.102Z,1008.72
2018-08-22T00:58:27.506Z,1008.75
2018-08-22T00:59:07.899Z,1008.74
2018-08-22T00:59:48.310Z,1008.75
2018-08-22T01:00:28.738Z,1008.75
2018-08-22T01:01:09.111Z,1008.75
2018-08-22T01:01:49.498Z,1008.77
2018-08-22T01:02:29.908Z,1008.73
2018-08-22T01:03:10.282Z,1008.73
2018-08-22T01:03:50.726Z,1008.72
2018-08-22T01:04:31.131Z,1008.69
2018-08-22T01:05:11.527Z,1008.7
2018-08-22T01:05:51.920Z,1008.68
2018-08-22T01:06:32.363Z,1008.68
2018-08-22T01:07:12.809Z,1008.69
2018-08-22T01:07:53.175Z,1008.69
2018-08-22T01:08:33.572Z,1008.68
2018-08-22T01:09:13.967Z,1008.66
2018-08-22T01:09:54.391Z,1008.67
2018-08-22T01:10:34.816Z,1008.68
2018-08-22T01:11:15.219Z,1008.66
2018-08-22T01:11:55.630Z,1008.67
2018-08-22T01:12:36.031Z,1008.62
2018-08-22T01:13:16.413Z,1008.64
2018-08-22T01:13:56.864Z,1008.6
2018-08-22T01:14:37.283Z,1008.59
2018-08-22T01:15:17.674Z,1008.58
2018-08-22T01:15:58.148Z,1008.57
2018-08-22T01:16:38.581Z,1008.6
2018-08-22T01:17:18.970Z,1008.55
2018-08-22T01:17:59.462Z,1008.52
2018-08-22T01:18:39.844Z,1008.55
2018-08-22T01:19:20.280Z,1008.55
2018-08-22T01:20:00.699Z,1008.55
2018-08-22T01:20:41.078Z,1008.53
2018-08-22T01:21:21.513Z,1008.51
2018-08-22T01:22:01.928Z,1008.54
2018-08-22T01:22:42.316Z,1008.5
2018-08-22T01:23:22.717Z,1008.5
2018-08-22T01:24:03.090Z,1008.52
2018-08-22T01:24:43.522Z,1008.49
2018-08-22T01:25:23.954Z,1008.53
2018-08-22T01:26:04.427Z,1008.54
2018-08-22T01:26:44.811Z,1008.54
2018-08-22T01:27:25.174Z,1008.54
2018-08-22T01:28:05.570Z,1008.53
2018-08-22T01:28:45.978Z,1008.53
2018-08-22T01:29:26.377Z,1008.56
2018-08-22T01:30:06.732Z,1008.57
2018-08-22T01:30:47.094Z,1008.56
2018-08-22T01:31:27.530Z,1008.55
2018-08-22T01:32:07.959Z,1008.53
2018-08-22T01:32:48.302Z,1008.54
2018-08-22T01:33:28.761Z,1008.56
2018-08-22T01:34:09.143Z,1008.53
2018-08-22T01:34:49.532Z,1008.52
2018-08-22T01:35:29.930Z,1008.5
2018-08-22T01:36:10.348Z,1008.54
2018-08-22T01:36:50.734Z,1008.51
2018-08-22T01:37:31.165Z,1008.49
2018-08-22T01:38:11.549Z,1008.5
2018-08-22T01:38:51.934Z,1008.53
2018-08-22T01:39:32.364Z,1008.5
2018-08-22T01:40:12.737Z,1008.52
2018-08-22T01:40:53.190Z,1008.5
2018-08-22T01:41:33.565Z,1008.48
2018-08-22T01:42:14.024Z,1008.48
2018-08-22T01:42:54.465Z,1008.46
2018-08-22T01:43:34.847Z,1008.5
2018-08-22T01:44:15.230Z,1008.5
2018-08-22T01:44:55.643Z,1008.51
2018-08-22T01:45:36.079Z,1008.49
2018-08-22T01:46:16.534Z,1008.49
2018-08-22T01:46:56.934Z,1008.52
2018-08-22T01:47:37.271Z,1008.51
2018-08-22T01:48:17.772Z,1008.5
2018-08-22T01:50:52.903Z,1008.51
2018-08-22T01:51:32.975Z,1008.49
2018-08-22T01:52:13.406Z,1008.46
2018-08-22T01:52:53.821Z,1008.43
2018-08-22T01:53:34.241Z,1008.46
2018-08-22T01:54:14.570Z,1008.48
2018-08-22T01:54:55.025Z,1008.48
2018-08-22T01:55:35.380Z,1008.45
2018-08-22T01:56:15.825Z,1008.47
2018-08-22T01:56:56.192Z,1008.43
2018-08-22T01:57:36.662Z,1008.41
2018-08-22T01:58:17.076Z,1008.44
2018-08-22T01:58:57.478Z,1008.43
2018-08-22T01:59:37.810Z,1008.44
2018-08-22T02:00:18.309Z,1008.46
2018-08-22T02:00:58.697Z,1008.44
2018-08-22T02:01:39.048Z,1008.48
2018-08-22T02:02:19.477Z,1008.43
2018-08-22T02:02:59.885Z,1008.46
2018-08-22T02:03:40.251Z,1008.43
2018-08-22T02:04:20.700Z,1008.43
2018-08-22T02:05:01.050Z,1008.43
2018-08-22T02:05:41.507Z,1008.42
2018-08-22T02:06:21.918Z,1008.37
2018-08-22T02:07:02.293Z,1008.4
2018-08-22T02:07:42.713Z,1008.4
2018-08-22T02:08:23.101Z,1008.41
2018-08-22T02:09:03.540Z,1008.38
2018-08-22T02:09:43.896Z,1008.35
2018-08-22T02:10:24.264Z,1008.38
2018-08-22T02:11:04.648Z,1008.36
2018-08-22T02:11:45.122Z,1008.35
2018-08-22T02:12:25.481Z,1008.35
2018-08-22T02:13:05.841Z,1008.34
2018-08-22T02:13:46.272Z,1008.36
2018-08-22T02:14:26.660Z,1008.33
2018-08-22T02:15:07.079Z,1008.34
2018-08-22T02:15:47.445Z,1008.36
2018-08-22T02:16:27.833Z,1008.34
2018-08-22T02:17:08.216Z,1008.3
2018-08-22T02:17:48.669Z,1008.33
2018-08-22T02:18:29.072Z,1008.31
2018-08-22T02:19:09.455Z,1008.3
2018-08-22T02:19:49.811Z,1008.29
2018-08-22T02:20:30.275Z,1008.27
2018-08-22T02:21:10.663Z,1008.32
2018-08-22T02:21:51.072Z,1008.27
2018-08-22T02:22:31.447Z,1008.25
2018-08-22T02:23:11.851Z,1008.28
2018-08-22T02:23:52.255Z,1008.23
2018-08-22T02:24:32.648Z,1008.27
2018-08-22T02:25:13.091Z,1008.24
2018-08-22T02:25:53.430Z,1008.26
2018-08-22T02:26:33.830Z,1008.26
2018-08-22T02:27:14.233Z,1008.28
2018-08-22T02:27:54.571Z,1008.25
2018-08-22T02:28:35.016Z,1008.26
2018-08-22T02:29:15.425Z,1008.26
2018-08-22T02:29:55.811Z,1008.3
2018-08-22T02:30:36.229Z,1008.29
2018-08-22T02:31:16.586Z,1008.28
2018-08-22T02:31:57.056Z,1008.32
2018-08-22T02:32:37.403Z,1008.32
2018-08-22T02:33:17.814Z,1008.3
2018-08-22T02:33:58.200Z,1008.31
2018-08-22T02:34:38.569Z,1008.28
2018-08-22T02:35:18.990Z,1008.34
2018-08-22T02:35:59.407Z,1008.3
2018-08-22T02:36:39.806Z,1008.33
2018-08-22T02:37:20.190Z,1008.29
2018-08-22T02:38:00.553Z,1008.32
2018-08-22T02:38:40.930Z,1008.3
2018-08-22T02:39:21.360Z,1008.31
2018-08-22T02:40:01.785Z,1008.26
2018-08-22T02:40:42.168Z,1008.28
2018-08-22T02:41:22.519Z,1008.29
2018-08-22T02:42:03.020Z,1008.27
2018-08-22T02:42:43.373Z,1008.29
2018-08-22T02:43:23.809Z,1008.27
2018-08-22T02:44:04.214Z,1008.29
2018-08-22T02:44:44.608Z,1008.3
2018-08-22T02:45:24.992Z,1008.29
2018-08-22T02:46:05.359Z,1008.26
2018-08-22T02:46:45.779Z,1008.31
2018-08-22T02:47:26.230Z,1008.27
2018-08-22T02:48:06.563Z,1008.27
2018-08-22T02:48:47.026Z,1008.28
2018-08-22T02:49:27.456Z,1008.29
2018-08-22T02:50:07.853Z,1008.28
2018-08-22T02:50:48.218Z,1008.28
2018-08-22T02:51:28.625Z,1008.27
2018-08-22T02:52:09.083Z,1008.3
2018-08-22T02:52:49.467Z,1008.3
2018-08-22T02:53:29.961Z,1008.31
2018-08-22T02:54:10.293Z,1008.27
2018-08-22T02:54:50.664Z,1008.35
2018-08-22T02:55:31.116Z,1008.33
2018-08-22T02:56:11.470Z,1008.35
2018-08-22T02:56:51.902Z,1008.34
2018-08-22T02:57:32.366Z,1008.34
2018-08-22T02:58:12.800Z,1008.37
2018-08-22T02:58:53.158Z,1008.37
2018-08-22T02:59:33.629Z,1008.36
2018-08-22T03:00:14.013Z,1008.33
2018-08-22T03:00:54.387Z,1008.34
2018-08-22T03:01:34.793Z,1008.33
2018-08-22T03:02:15.287Z,1008.33
2018-08-22T03:02:55.653Z,1008.3
2018-08-22T03:03:36.074Z,1008.31
2018-08-22T03:04:16.451Z,1008.32
2018-08-22T03:04:56.822Z,1008.31
2018-08-22T03:05:37.206Z,1008.32
2018-08-22T03:06:17.583Z,1008.28
2018-08-22T03:06:57.979Z,1008.27
2018-08-22T03:07:38.430Z,1008.26
2018-08-22T03:08:18.864Z,1008.29
2018-08-22T03:08:59.221Z,1008.25
2018-08-22T03:09:39.581Z,1008.27
2018-08-22T03:10:20.005Z,1008.25
2018-08-22T03:11:00.450Z,1008.29
2018-08-22T03:11:40.849Z,1008.29
2018-08-22T03:12:21.234Z,1008.27
2018-08-22T03:13:01.669Z,1008.29
2018-08-22T03:13:42.083Z,1008.3
2018-08-22T03:14:22.499Z,1008.27
2018-08-22T03:15:02.867Z,1008.26
2018-08-22T03:15:43.303Z,1008.27
2018-08-22T03:16:23.709Z,1008.29
2018-08-22T03:17:04.052Z,1008.3
2018-08-22T03:17:44.521Z,1008.3
2018-08-22T03:18:24.875Z,1008.29
2018-08-22T03:19:05.445Z,1008.31
2018-08-22T03:19:45.826Z,1008.29
2018-08-22T03:20:26.231Z,1008.29
2018-08-22T03:21:06.654Z,1008.3
2018-08-22T03:21:47.064Z,1008.29
2018-08-22T03:22:27.468Z,1008.29
2018-08-22T03:23:07.854Z,1008.29
2018-08-22T03:23:48.304Z,1008.26
2018-08-22T03:24:28.647Z,1008.29
2018-08-22T03:25:09.090Z,1008.29
2018-08-22T03:25:49.527Z,1008.26
2018-08-22T03:26:29.880Z,1008.31
2018-08-22T03:27:10.311Z,1008.32
2018-08-22T03:27:50.736Z,1008.29
2018-08-22T03:28:31.129Z,1008.25
2018-08-22T03:29:11.562Z,1008.31
2018-08-22T03:29:52.033Z,1008.28
2018-08-22T03:30:32.357Z,1008.25
2018-08-22T03:31:12.791Z,1008.29
2018-08-22T03:31:53.166Z,1008.25
2018-08-22T03:32:33.607Z,1008.25
2018-08-22T03:33:13.968Z,1008.26
2018-08-22T03:33:54.395Z,1008.26
2018-08-22T03:34:34.742Z,1008.26
2018-08-22T03:35:15.198Z,1008.26
2018-08-22T03:35:55.540Z,1008.24
2018-08-22T03:36:35.981Z,1008.21
2018-08-22T03:37:16.413Z,1008.25
2018-08-22T03:37:56.819Z,1008.22
2018-08-22T03:38:37.208Z,1008.24
2018-08-22T03:39:17.644Z,1008.19
2018-08-22T03:39:58.036Z,1008.22
2018-08-22T03:40:38.504Z,1008.22
2018-08-22T03:41:18.910Z,1008.21
2018-08-22T03:41:59.283Z,1008.21
2018-08-22T03:42:39.730Z,1008.22
2018-08-22T03:43:20.266Z,1008.2
2018-08-22T03:44:00.600Z,1008.19
2018-08-22T03:44:40.999Z,1008.23
2018-08-22T03:45:21.459Z,1008.2
2018-08-22T03:46:02.575Z,1008.25
2018-08-22T03:46:42.326Z,1008.25
2018-08-22T03:47:22.687Z,1008.26
2018-08-22T03:48:03.131Z,1008.27
2018-08-22T03:48:43.571Z,1008.22
2018-08-22T03:49:24.031Z,1008.25
2018-08-22T03:50:04.460Z,1008.26
2018-08-22T03:50:44.896Z,1008.26
2018-08-22T03:51:25.260Z,1008.26
2018-08-22T03:52:05.660Z,1008.24
2018-08-22T03:52:46.082Z,1008.27
2018-08-22T03:53:26.768Z,1008.24
2018-08-22T03:54:07.234Z,1008.27
2018-08-22T03:54:47.560Z,1008.25
2018-08-22T03:55:27.994Z,1008.27
2018-08-22T03:56:08.478Z,1008.27
2018-08-22T03:56:48.906Z,1008.27
2018-08-22T03:57:29.241Z,1008.26
2018-08-22T03:58:09.748Z,1008.25
2018-08-22T03:58:50.095Z,1008.26
2018-08-22T03:59:30.485Z,1008.28
2018-08-22T04:00:10.877Z,1008.24
2018-08-22T04:00:51.284Z,1008.26
2018-08-22T04:01:31.807Z,1008.29
2018-08-22T04:02:12.186Z,1008.24
2018-08-22T04:02:52.652Z,1008.28
2018-08-22T04:03:33.019Z,1008.28
2018-08-22T04:04:13.629Z,1008.29
2018-08-22T04:04:54.069Z,1008.26
2018-08-22T04:05:34.417Z,1008.28
2018-08-22T04:06:14.832Z,1008.28
2018-08-22T04:06:55.186Z,1008.26
2018-08-22T04:07:35.609Z,1008.28
2018-08-22T04:08:16.020Z,1008.26
2018-08-22T04:08:56.453Z,1008.22
2018-08-22T04:09:36.963Z,1008.24
2018-08-22T04:10:17.385Z,1008.3
2018-08-22T04:10:57.777Z,1008.26
2018-08-22T04:11:38.156Z,1008.31
2018-08-22T04:12:18.662Z,1008.29
2018-08-22T04:12:58.961Z,1008.27
2018-08-22T04:13:39.361Z,1008.25
2018-08-22T04:14:19.864Z,1008.27
2018-08-22T04:16:50.965Z,1008.23
2018-08-22T04:17:31.429Z,1008.23
2018-08-22T04:18:11.814Z,1008.21
2018-08-22T04:18:52.245Z,1008.19
2018-08-22T04:19:32.681Z,1008.23
2018-08-22T04:20:13.084Z,1008.2
2018-08-22T04:20:53.545Z,1008.19
2018-08-22T04:21:33.991Z,1008.21
2018-08-22T04:22:14.261Z,1008.23
2018-08-22T04:22:54.765Z,1008.22
2018-08-22T04:23:35.224Z,1008.21
2018-08-22T04:24:15.591Z,1008.21
2018-08-22T04:24:56.069Z,1008.22
2018-08-22T04:25:36.470Z,1008.21
2018-08-22T04:26:16.917Z,1008.22
2018-08-22T04:26:57.225Z,1008.24
2018-08-22T04:27:37.673Z,1008.22
2018-08-22T05:07:45.045Z,1008.19
2018-08-22T05:08:42.178Z,1008.2
2018-08-22T05:09:22.468Z,1008.22
2018-08-22T05:10:04.344Z,1008.19
2018-08-22T05:10:45.042Z,1008.19
2018-08-22T05:11:25.434Z,1008.18
2018-08-22T05:12:09.097Z,1008.23
2018-08-22T05:12:52.940Z,1008.28
2018-08-22T05:13:34.629Z,1008.23
2018-08-22T05:14:15.626Z,1008.26
2018-08-22T05:14:56.564Z,1008.26
2018-08-22T05:15:36.903Z,1008.28
2018-08-22T05:16:18.447Z,1008.29
2018-08-22T05:17:00.022Z,1008.31
2018-08-22T05:17:42.177Z,1008.32
2018-08-22T05:20:24.791Z,1008.23
2018-08-22T05:24:32.889Z,1008.21
2018-08-22T05:25:13.311Z,1008.28
2018-08-22T05:25:53.677Z,1008.28
2018-08-22T05:26:34.120Z,1008.31
2018-08-22T05:27:17.637Z,1008.32
2018-08-22T05:27:57.970Z,1008.32
2018-08-22T05:28:38.265Z,1008.33
2018-08-22T05:29:18.504Z,1008.31
2018-08-22T05:29:59.097Z,1008.31
2018-08-22T05:30:39.485Z,1008.33
2018-08-22T05:31:19.810Z,1008.35
2018-08-22T05:32:00.317Z,1008.39
2018-08-22T05:32:40.681Z,1008.37
2018-08-22T05:33:21.112Z,1008.37
2018-08-22T05:34:01.581Z,1008.35
2018-08-22T05:34:41.990Z,1008.32
2018-08-22T05:35:22.377Z,1008.35
2018-08-22T05:36:02.782Z,1008.36
2018-08-22T05:36:45.600Z,1008.34
2018-08-22T05:37:25.954Z,1008.33
2018-08-22T05:38:06.439Z,1008.35
2018-08-22T05:38:46.775Z,1008.39
2018-08-22T05:40:45.173Z,1008.41
2018-08-22T05:41:23.359Z,1008.41
2018-08-22T05:42:03.841Z,1008.4
2018-08-22T05:42:44.222Z,1008.43
2018-08-22T05:43:24.572Z,1008.43
2018-08-22T05:44:05.306Z,1008.43
2018-08-22T05:44:45.955Z,1008.46
2018-08-22T05:45:26.543Z,1008.43
2018-08-22T05:46:07.308Z,1008.47
2018-08-22T05:46:48.077Z,1008.47
2018-08-22T05:47:28.983Z,1008.37
2018-08-22T05:48:09.323Z,1008.37
2018-08-22T05:48:49.758Z,1008.39
2018-08-22T05:49:30.124Z,1008.42
2018-08-22T05:50:10.464Z,1008.41
2018-08-22T05:50:50.905Z,1008.4
2018-08-22T05:51:31.317Z,1008.43
2018-08-22T05:52:11.741Z,1008.41
2018-08-22T05:52:52.825Z,1008.4
2018-08-22T05:53:33.059Z,1008.41
2018-08-22T05:54:13.509Z,1008.43
2018-08-22T05:54:54.520Z,1008.43
2018-08-22T05:55:35.909Z,1008.45
2018-08-22T05:56:15.955Z,1008.42
2018-08-22T05:56:56.376Z,1008.42
2018-08-22T05:57:36.882Z,1008.46
2018-08-22T05:58:17.800Z,1008.43
2018-08-22T05:58:57.808Z,1008.47
2018-08-22T05:59:38.226Z,1008.49
2018-08-22T06:00:18.675Z,1008.46
2018-08-22T06:00:59.095Z,1008.46
2018-08-22T06:01:39.539Z,1008.46
2018-08-22T06:02:20.019Z,1008.51
2018-08-22T06:03:01.308Z,1008.48
2018-08-22T06:03:41.365Z,1008.48
2018-08-22T06:04:21.839Z,1008.51
2018-08-22T06:05:02.275Z,1008.51
2018-08-22T06:05:42.879Z,1008.53
2018-08-22T06:06:23.631Z,1008.56
2018-08-22T06:07:04.319Z,1008.57
2018-08-22T06:07:45.037Z,1008.58
2018-08-22T06:08:25.299Z,1008.56
2018-08-22T06:09:05.795Z,1008.57
2018-08-22T06:09:46.398Z,1008.58
2018-08-22T06:10:27.156Z,1008.57
2018-08-22T06:11:07.335Z,1008.58
2018-08-22T06:11:47.793Z,1008.56
2018-08-22T06:12:28.448Z,1008.54
2018-08-22T06:13:09.260Z,1008.55
2018-08-22T06:13:49.932Z,1008.52
2018-08-22T06:14:31.064Z,1008.53
2018-08-22T06:15:12.515Z,1008.53
2018-08-22T06:15:54.163Z,1008.51
2018-08-22T06:16:36.319Z,1008.5
2018-08-22T06:17:17.243Z,1008.48
2018-08-22T06:17:59.297Z,1008.5
2018-08-22T06:18:40.473Z,1008.49
2018-08-22T06:19:21.171Z,1008.45
2018-08-22T06:20:01.524Z,1008.46
2018-08-22T06:20:42.019Z,1008.48
2018-08-22T06:21:23.173Z,1008.46
2018-08-22T06:22:07.770Z,1008.46
2018-08-22T06:22:48.667Z,1008.44
2018-08-22T06:23:29.723Z,1008.47
2018-08-22T06:24:10.826Z,1008.45
2018-08-22T06:24:50.767Z,1008.42
2018-08-22T06:25:31.183Z,1008.42
2018-08-22T06:26:12.904Z,1008.44
2018-08-22T06:26:52.658Z,1008.39
2018-08-22T06:27:33.392Z,1008.41
2018-08-22T06:28:14.114Z,1008.43
2018-08-22T06:28:54.557Z,1008.38
2018-08-22T06:29:34.979Z,1008.42
2018-08-22T06:30:15.426Z,1008.4
2018-08-22T06:30:55.833Z,1008.43
2018-08-22T06:31:36.383Z,1008.41
2018-08-22T06:32:18.067Z,1008.38
2018-08-22T06:32:58.336Z,1008.4
2018-08-22T06:33:38.444Z,1008.4
2018-08-22T06:34:19.809Z,1008.42
2018-08-22T06:35:00.327Z,1008.39
2018-08-22T06:35:40.894Z,1008.42
2018-08-22T06:36:23.584Z,1008.42
2018-08-22T06:37:04.383Z,1008.42
2018-08-22T06:37:44.492Z,1008.42
2018-08-22T06:38:24.923Z,1008.44
2018-08-22T06:39:05.704Z,1008.41
2018-08-22T06:39:46.806Z,1008.42
2018-08-22T06:40:26.790Z,1008.41
2018-08-22T06:41:07.263Z,1008.42
2018-08-22T06:41:47.662Z,1008.42
2018-08-22T06:42:28.171Z,1008.43
2018-08-22T06:43:08.628Z,1008.4
2018-08-22T06:43:49.065Z,1008.39
2018-08-22T06:44:29.501Z,1008.42
2018-08-22T06:45:09.980Z,1008.37
2018-08-22T06:47:32.869Z,1008.45
2018-08-22T06:48:23.099Z,1008.41
2018-08-22T06:49:09.755Z,1008.45
2018-08-22T06:49:49.880Z,1008.47
2018-08-22T06:50:30.315Z,1008.47
2018-08-22T06:51:11.025Z,1008.47
2018-08-22T06:51:51.449Z,1008.48
2018-08-22T06:52:31.863Z,1008.47
2018-08-22T06:53:12.253Z,1008.47
2018-08-22T06:53:52.715Z,1008.53
2018-08-22T06:54:33.086Z,1008.53
2018-08-22T06:55:13.559Z,1008.52
2018-08-22T06:55:53.962Z,1008.5
2018-08-22T06:56:34.345Z,1008.54
2018-08-22T06:57:14.846Z,1008.51
2018-08-22T06:57:55.228Z,1008.55
2018-08-22T06:58:35.575Z,1008.55
2018-08-22T06:59:16.039Z,1008.51
2018-08-22T06:59:56.389Z,1008.52
2018-08-22T07:00:36.900Z,1008.5
2018-08-22T07:01:17.358Z,1008.5
2018-08-22T07:01:57.720Z,1008.52
2018-08-22T07:02:38.194Z,1008.48
2018-08-22T07:03:18.525Z,1008.47
2018-08-22T07:03:59.041Z,1008.45
2018-08-22T07:04:39.366Z,1008.43
2018-08-22T07:05:21.178Z,1008.48
2018-08-22T07:06:01.673Z,1008.45
2018-08-22T07:06:42.229Z,1008.46
2018-08-22T07:07:22.800Z,1008.46
2018-08-22T07:08:03.160Z,1008.46
2018-08-22T07:08:43.582Z,1008.48
2018-08-22T07:09:23.990Z,1008.47
2018-08-22T07:10:04.518Z,1008.45
2018-08-22T07:10:44.868Z,1008.49
2018-08-22T07:11:25.221Z,1008.49
2018-08-22T07:12:05.670Z,1008.45
2018-08-22T07:12:46.099Z,1008.46
2018-08-22T07:13:26.710Z,1008.47
2018-08-22T07:14:07.283Z,1008.49
2018-08-22T07:14:47.642Z,1008.42
2018-08-22T07:15:28.104Z,1008.44
2018-08-22T07:16:08.796Z,1008.41
2018-08-22T07:16:49.290Z,1008.42
2018-08-22T07:21:56.813Z,1008.42
2018-08-22T07:22:37.276Z,1008.41
2018-08-22T07:23:17.929Z,1008.42
2018-08-22T07:23:58.672Z,1008.41
2018-08-22T07:24:39.199Z,1008.45
2018-08-22T07:25:19.831Z,1008.44
2018-08-22T07:27:28.014Z,1008.46
2018-08-22T07:28:22.096Z,1008.48
2018-08-22T07:29:16.047Z,1008.47
2018-08-22T07:31:15.114Z,1008.45
2018-08-22T07:31:56.536Z,1008.48
2018-08-22T07:32:36.967Z,1008.48
2018-08-22T07:33:17.720Z,1008.46
2018-08-22T07:33:58.425Z,1008.5
2018-08-22T07:34:38.879Z,1008.46
2018-08-22T07:35:19.737Z,1008.47
2018-08-22T07:36:00.450Z,1008.47
2018-08-22T07:36:40.873Z,1008.5
2018-08-22T07:37:21.596Z,1008.48
2018-08-22T07:38:02.024Z,1008.48
2018-08-22T07:38:43.624Z,1008.49
2018-08-22T07:39:24.113Z,1008.48
2018-08-22T07:40:04.152Z,1008.46
2018-08-22T07:40:44.747Z,1008.49
2018-08-22T07:41:25.158Z,1008.48
2018-08-22T07:42:05.591Z,1008.49
2018-08-22T07:42:46.241Z,1008.48
2018-08-22T07:43:26.970Z,1008.48
2018-08-22T07:44:07.454Z,1008.43
2018-08-22T07:44:47.964Z,1008.43
2018-08-22T07:45:28.518Z,1008.45
2018-08-22T07:46:08.929Z,1008.43
2018-08-22T07:46:49.477Z,1008.43
2018-08-22T07:47:30.122Z,1008.41
2018-08-22T07:48:10.524Z,1008.39
2018-08-22T07:48:51.153Z,1008.41
2018-08-22T07:49:31.711Z,1008.4
2018-08-22T07:50:12.463Z,1008.43
2018-08-22T07:50:53.490Z,1008.42
2018-08-22T07:51:33.981Z,1008.41
2018-08-22T07:52:14.791Z,1008.43
2018-08-22T07:52:56.117Z,1008.45
2018-08-22T07:53:38.157Z,1008.45
2018-08-22T07:54:20.163Z,1008.44
2018-08-22T07:55:01.306Z,1008.45
2018-08-22T07:55:42.128Z,1008.43
2018-08-22T07:56:22.723Z,1008.45
2018-08-22T07:57:02.561Z,1008.47
2018-08-22T07:57:43.114Z,1008.45
2018-08-22T07:58:23.550Z,1008.47
2018-08-22T07:59:04.093Z,1008.45
2018-08-22T07:59:44.824Z,1008.43
2018-08-22T08:00:25.170Z,1008.44
2018-08-22T08:01:05.687Z,1008.44
2018-08-22T08:01:46.255Z,1008.42
2018-08-22T08:02:28.211Z,1008.43
2018-08-22T08:03:11.176Z,1008.43
2018-08-22T08:03:52.440Z,1008.4
2018-08-22T08:04:33.783Z,1008.4
2018-08-22T08:05:14.169Z,1008.45
2018-08-22T08:05:55.217Z,1008.39
2018-08-22T08:06:35.209Z,1008.42
2018-08-22T08:07:15.637Z,1008.43
2018-08-22T08:07:56.566Z,1008.4
2018-08-22T08:08:37.556Z,1008.44
2018-08-22T08:09:18.169Z,1008.44
2018-08-22T08:09:58.663Z,1008.42
2018-08-22T08:10:39.276Z,1008.45
2018-08-22T08:11:20.258Z,1008.46
2018-08-22T08:12:01.353Z,1008.46
2018-08-22T08:12:42.021Z,1008.46
2018-08-22T08:13:22.606Z,1008.47
2018-08-22T08:14:04.267Z,1008.46
2018-08-22T08:14:44.114Z,1008.47
2018-08-22T08:15:25.555Z,1008.46
2018-08-22T08:16:06.427Z,1008.46
2018-08-22T08:16:47.777Z,1008.49
2018-08-22T08:17:28.645Z,1008.49
2018-08-22T08:18:08.954Z,1008.48
2018-08-22T08:18:50.323Z,1008.5
2018-08-22T08:19:30.781Z,1008.5
2018-08-22T08:20:12.159Z,1008.49
2018-08-22T08:20:51.892Z,1008.49
2018-08-22T08:21:33.149Z,1008.51
2018-08-22T08:22:13.260Z,1008.49
2018-08-22T08:22:53.899Z,1008.52
2018-08-22T08:23:34.481Z,1008.51
2018-08-22T08:24:14.979Z,1008.51
2018-08-22T08:24:55.535Z,1008.52
2018-08-22T08:25:36.041Z,1008.53
2018-08-22T08:26:16.601Z,1008.54
2018-08-22T08:26:57.178Z,1008.52
2018-08-22T08:27:37.680Z,1008.53
2018-08-22T08:28:18.159Z,1008.51
2018-08-22T08:28:58.662Z,1008.51
2018-08-22T08:29:39.238Z,1008.5
2018-08-22T08:30:20.643Z,1008.49
2018-08-22T08:31:00.429Z,1008.51
2018-08-22T08:31:42.739Z,1008.48
2018-08-22T08:32:23.295Z,1008.46
2018-08-22T08:33:04.060Z,1008.49
2018-08-22T08:33:45.388Z,1008.45
2018-08-22T08:34:25.379Z,1008.47
2018-08-22T08:35:06.201Z,1008.47
2018-08-22T08:35:46.995Z,1008.47
2018-08-22T08:36:28.447Z,1008.46
2018-08-22T08:37:09.013Z,1008.44
2018-08-22T08:37:49.929Z,1008.47
2018-08-22T08:38:31.191Z,1008.49
2018-08-22T08:39:11.397Z,1008.46
2018-08-22T08:39:52.501Z,1008.44
2018-08-22T08:40:34.828Z,1008.47
2018-08-22T08:41:17.752Z,1008.46
2018-08-22T08:41:58.512Z,1008.45
2018-08-22T08:42:39.063Z,1008.47
2018-08-22T08:43:20.204Z,1008.47
2018-08-22T08:44:00.559Z,1008.49
2018-08-22T08:44:41.319Z,1008.49
2018-08-22T08:45:24.942Z,1008.47
2018-08-22T08:46:05.822Z,1008.43
2018-08-22T08:46:45.766Z,1008.48
2018-08-22T08:47:27.700Z,1008.46
2018-08-22T08:48:07.459Z,1008.48
2018-08-22T08:48:48.714Z,1008.45
2018-08-22T08:49:30.543Z,1008.43
2018-08-22T08:50:11.265Z,1008.45
2018-08-22T08:50:51.734Z,1008.46
2018-08-22T08:51:38.866Z,1008.43
2018-08-22T08:52:19.679Z,1008.41
2018-08-22T08:52:59.613Z,1008.4
2018-08-22T08:53:41.584Z,1008.38
2018-08-22T08:54:22.208Z,1008.36
2018-08-22T08:55:03.517Z,1008.4
2018-08-22T08:55:44.455Z,1008.37
2018-08-22T08:56:25.211Z,1008.37
2018-08-22T08:57:07.326Z,1008.38
2018-08-22T08:57:47.750Z,1008.37
2018-08-22T08:58:31.788Z,1008.39
2018-08-22T08:59:13.749Z,1008.38
2018-08-22T08:59:55.017Z,1008.38
2018-08-22T09:00:36.670Z,1008.35
2018-08-22T09:01:16.615Z,1008.36
2018-08-22T09:01:58.697Z,1008.3
2018-08-22T09:02:39.705Z,1008.31
2018-08-22T09:03:20.721Z,1008.31
2018-08-22T09:04:01.343Z,1008.28
2018-08-22T09:04:42.688Z,1008.27
2018-08-22T09:05:23.731Z,1008.22
2018-08-22T09:06:04.454Z,1008.28
2018-08-22T09:06:46.252Z,1008.24
2018-08-22T09:07:28.210Z,1008.24
2018-08-22T09:08:08.224Z,1008.25
2018-08-22T09:08:49.216Z,1008.26
2018-08-22T09:09:31.053Z,1008.22
2018-08-22T09:10:10.969Z,1008.23
2018-08-22T09:10:51.660Z,1008.27
2018-08-22T09:11:33.720Z,1008.24
2018-08-22T09:12:15.286Z,1008.21